createdAt,value
2022-10-19T00:01:28.637Z,71.87
2022-10-19T00:03:56.054Z,72.77
2022-10-19T00:06:26.198Z,73.08
2022-10-19T00:08:54.375Z,72.88
2022-10-19T00:11:21.334Z,72.49
2022-10-19T00:13:47.804Z,72.04
2022-10-19T00:16:16.215Z,71.97
2022-10-19T00:18:43.663Z,73.28
2022-10-19T00:21:11.983Z,72.63
2022-10-19T00:23:38.521Z,73.46
2022-10-19T00:26:05.039Z,72.76
2022-10-19T00:28:31.494Z,72.72
2022-10-19T00:31:03.037Z,72.34
2022-10-19T00:33:29.412Z,72.70
2022-10-19T00:35:55.832Z,74.03
2022-10-19T00:38:22.287Z,74.99
2022-10-19T00:40:49.312Z,75.31
2022-10-19T00:43:16.874Z,74.72
2022-10-19T00:45:43.270Z,73.96
2022-10-19T00:48:13.191Z,73.87
2022-10-19T00:50:40.776Z,73.25
2022-10-19T00:53:07.198Z,73.00
2022-10-19T00:55:34.552Z,73.28
2022-10-19T00:58:03.285Z,72.53
2022-10-19T01:00:29.848Z,72.22
2022-10-19T01:02:58.763Z,72.40
2022-10-19T01:05:26.382Z,72.42
2022-10-19T01:07:53.842Z,71.86
2022-10-19T01:10:30.291Z,71.93
2022-10-19T01:13:21.305Z,72.74
2022-10-19T01:15:59.520Z,73.03
2022-10-19T01:18:48.121Z,73.59
2022-10-19T01:21:21.622Z,73.70
2022-10-19T01:24:01.722Z,73.15
2022-10-19T01:26:47.529Z,73.91
2022-10-19T01:29:44.920Z,73.43
2022-10-19T01:32:28.983Z,72.26
2022-10-19T01:35:06.668Z,72.00
2022-10-19T01:37:51.860Z,73.05
2022-10-19T01:40:30.580Z,71.54
2022-10-19T01:43:37.747Z,71.81
2022-10-19T01:46:31.559Z,72.76
2022-10-19T01:49:09.260Z,72.97
2022-10-19T01:51:42.336Z,73.07
2022-10-19T01:54:12.733Z,72.58
2022-10-19T01:56:42.577Z,71.69
2022-10-19T01:59:11.836Z,72.47
2022-10-19T02:01:43.833Z,71.78
2022-10-19T02:04:12.980Z,71.55
2022-10-19T02:06:40.851Z,71.08
2022-10-19T02:09:07.409Z,71.13
2022-10-19T02:11:35.491Z,71.52
2022-10-19T02:14:09.518Z,71.38
2022-10-19T02:16:45.797Z,71.52
2022-10-19T02:19:15.494Z,71.96
2022-10-19T02:21:42.007Z,71.40
2022-10-19T02:24:08.470Z,71.78
2022-10-19T02:26:35.023Z,72.39
2022-10-19T02:29:01.580Z,72.32
2022-10-19T02:31:27.958Z,72.93
2022-10-19T02:33:54.707Z,73.01
2022-10-19T02:36:21.479Z,73.52
2022-10-19T02:38:48.024Z,72.67
2022-10-19T02:41:24.383Z,72.49
2022-10-19T02:43:58.900Z,72.77
2022-10-19T02:46:35.295Z,73.11
2022-10-19T02:49:04.440Z,72.12
2022-10-19T02:51:33.749Z,71.81
2022-10-19T02:54:02.712Z,71.84
2022-10-19T02:56:32.243Z,72.13
2022-10-19T02:58:58.595Z,72.73
2022-10-19T03:01:25.099Z,72.53
2022-10-19T03:03:51.433Z,72.42
2022-10-19T03:06:17.750Z,73.24
2022-10-19T03:08:44.382Z,73.54
2022-10-19T03:11:10.727Z,75.34
2022-10-19T03:13:37.149Z,74.78
2022-10-19T03:16:12.224Z,74.99
2022-10-19T03:18:38.687Z,75.73
2022-10-19T03:21:08.460Z,76.31
2022-10-19T03:23:35.502Z,75.77
2022-10-19T03:26:02.377Z,75.57
2022-10-19T03:28:28.962Z,74.17
2022-10-19T03:30:55.807Z,73.82
2022-10-19T03:33:22.697Z,73.32
2022-10-19T03:35:49.201Z,72.98
2022-10-19T03:38:15.878Z,72.88
2022-10-19T03:40:42.492Z,72.49
2022-10-19T03:43:08.836Z,72.15
2022-10-19T03:45:35.198Z,72.32
2022-10-19T03:48:01.587Z,73.04
2022-10-19T03:50:27.946Z,73.11
2022-10-19T03:52:55.437Z,73.30
2022-10-19T03:55:21.790Z,73.40
2022-10-19T03:57:48.118Z,74.14
2022-10-19T04:00:14.841Z,73.79
2022-10-19T04:02:41.153Z,74.94
2022-10-19T04:05:07.886Z,74.51
2022-10-19T04:07:34.491Z,74.45
2022-10-19T04:10:01.043Z,74.77
2022-10-19T04:12:27.356Z,74.75
2022-10-19T04:14:57.407Z,75.22
2022-10-19T04:17:24.849Z,75.60
2022-10-19T04:19:51.184Z,75.03
2022-10-19T04:22:17.544Z,75.32
2022-10-19T04:24:43.886Z,75.74
2022-10-19T04:27:10.196Z,75.64
2022-10-19T04:29:36.599Z,75.27
2022-10-19T04:32:02.939Z,75.96
2022-10-19T04:34:29.264Z,76.09
2022-10-19T04:36:59.121Z,76.21
2022-10-19T04:39:25.433Z,76.07
2022-10-19T04:41:51.735Z,76.36
2022-10-19T04:44:18.099Z,76.69
2022-10-19T04:46:44.452Z,76.96
2022-10-19T04:49:10.776Z,77.38
2022-10-19T04:51:37.111Z,77.16
2022-10-19T04:54:03.834Z,77.39
2022-10-19T04:56:32.141Z,77.58
2022-10-19T04:59:00.079Z,77.15
2022-10-19T05:01:28.525Z,77.65
2022-10-19T05:04:00.769Z,77.39
2022-10-19T05:06:27.516Z,77.48
2022-10-19T05:08:53.859Z,77.82
2022-10-19T05:11:20.862Z,78.22
2022-10-19T05:13:47.619Z,78.18
2022-10-19T05:16:17.720Z,78.13
2022-10-19T05:18:50.883Z,77.58
2022-10-19T05:21:18.168Z,78.32
2022-10-19T05:23:44.865Z,78.28
2022-10-19T05:26:14.466Z,78.08
2022-10-19T05:28:41.182Z,77.77
2022-10-19T05:31:12.864Z,78.25
2022-10-19T05:33:40.152Z,78.22
2022-10-19T05:36:29.489Z,77.79
2022-10-19T05:38:57.731Z,78.06
2022-10-19T05:41:26.230Z,78.62
2022-10-19T05:43:57.677Z,78.13
2022-10-19T05:46:24.970Z,78.56
2022-10-19T05:48:51.556Z,78.61
2022-10-19T05:51:20.555Z,78.58
2022-10-19T05:53:47.156Z,78.66
2022-10-19T05:56:17.862Z,79.07
2022-10-19T05:58:44.566Z,79.16
2022-10-19T06:01:11.055Z,79.18
2022-10-19T06:03:37.381Z,79.48
2022-10-19T06:06:06.214Z,79.60
2022-10-19T06:08:33.672Z,79.68
2022-10-19T06:11:09.932Z,80.08
2022-10-19T06:13:37.191Z,79.89
2022-10-19T06:16:04.537Z,79.73
2022-10-19T06:18:31.005Z,79.82
2022-10-19T06:21:02.371Z,80.10
2022-10-19T06:23:28.714Z,79.81
2022-10-19T06:25:55.256Z,79.72
2022-10-19T06:28:21.558Z,79.60
2022-10-19T06:30:47.906Z,79.78
2022-10-19T06:33:14.442Z,79.69
2022-10-19T06:35:42.897Z,79.89
2022-10-19T06:38:09.717Z,79.70
2022-10-19T06:40:36.226Z,79.60
2022-10-19T06:43:02.584Z,79.54
2022-10-19T06:45:32.270Z,79.25
2022-10-19T06:48:05.020Z,79.58
2022-10-19T06:50:34.217Z,79.63
2022-10-19T06:53:00.599Z,79.61
2022-10-19T06:55:27.016Z,79.96
2022-10-19T06:57:53.384Z,79.62
2022-10-19T07:00:19.735Z,79.96
2022-10-19T07:02:46.082Z,80.52
2022-10-19T07:05:12.399Z,80.14
2022-10-19T07:07:38.860Z,80.43
2022-10-19T07:10:05.722Z,79.68
2022-10-19T07:12:32.144Z,79.47
2022-10-19T07:14:58.455Z,79.82
2022-10-19T07:17:24.921Z,79.67
2022-10-19T07:19:51.259Z,79.56
2022-10-19T07:22:22.174Z,79.87
2022-10-19T07:24:52.218Z,79.75
2022-10-19T07:27:18.653Z,79.96
2022-10-19T07:29:45.132Z,80.21
2022-10-19T07:32:11.444Z,80.04
2022-10-19T07:34:37.771Z,80.08
2022-10-19T07:37:04.131Z,79.95
2022-10-19T07:39:30.623Z,80.40
2022-10-19T07:41:56.981Z,80.37
2022-10-19T07:44:23.453Z,80.34
2022-10-19T07:46:50.289Z,80.25
2022-10-19T07:49:18.898Z,80.58
2022-10-19T07:51:46.732Z,80.34
2022-10-19T07:54:13.638Z,80.05
2022-10-19T07:56:40.125Z,79.91
2022-10-19T07:59:06.579Z,80.24
2022-10-19T08:01:37.903Z,80.36
2022-10-19T08:06:50.640Z,79.80
2022-10-19T08:09:40.043Z,80.17
2022-10-19T08:12:04.295Z,80.21
2022-10-19T08:14:30.758Z,80.37
2022-10-19T08:16:57.416Z,80.07
2022-10-19T08:19:24.208Z,79.21
2022-10-19T08:21:50.888Z,79.44
2022-10-19T08:24:19.751Z,78.56
2022-10-19T08:26:46.783Z,78.50
2022-10-19T08:29:16.265Z,78.67
2022-10-19T08:31:44.061Z,79.02
2022-10-19T08:34:11.327Z,79.61
2022-10-19T08:36:37.716Z,79.10
2022-10-19T08:39:06.096Z,79.16
2022-10-19T08:41:44.920Z,79.40
2022-10-19T08:44:33.059Z,79.24
2022-10-19T08:47:12.512Z,78.99
2022-10-19T08:49:41.574Z,79.19
2022-10-19T08:52:16.245Z,79.42
2022-10-19T08:54:56.447Z,79.68
2022-10-19T08:57:41.271Z,79.45
2022-10-19T09:00:28.425Z,79.02
2022-10-19T09:03:13.573Z,79.53
2022-10-19T09:05:44.847Z,79.36
2022-10-19T09:08:17.448Z,78.54
2022-10-19T09:10:48.753Z,78.36
2022-10-19T09:13:21.101Z,78.15
2022-10-19T09:15:50.409Z,77.98
2022-10-19T09:18:21.421Z,77.05
2022-10-19T09:20:53.875Z,76.50
2022-10-19T09:23:27.409Z,76.10
2022-10-19T09:25:55.583Z,75.47
2022-10-19T09:28:44.792Z,75.41
2022-10-19T09:31:18.046Z,75.21
2022-10-19T09:33:50.049Z,76.22
2022-10-19T09:36:22.916Z,75.65
2022-10-19T09:38:54.190Z,75.67
2022-10-19T09:41:22.479Z,74.84
2022-10-19T09:43:54.406Z,74.30
2022-10-19T09:46:52.044Z,73.89
2022-10-19T09:49:20.198Z,72.84
2022-10-19T09:51:53.059Z,72.27
2022-10-19T09:54:26.039Z,72.00
2022-10-19T09:56:54.786Z,72.10
2022-10-19T09:59:24.208Z,72.72
2022-10-19T10:02:06.131Z,71.81
2022-10-19T10:04:36.273Z,70.02
2022-10-19T10:07:03.951Z,71.34
2022-10-19T10:09:30.472Z,72.33
2022-10-19T10:11:59.920Z,71.07
2022-10-19T10:14:33.409Z,68.67
2022-10-19T10:17:06.601Z,61.56
2022-10-19T10:19:35.973Z,55.10
2022-10-19T10:22:03.851Z,51.05
2022-10-19T10:24:32.799Z,50.67
2022-10-19T10:27:06.371Z,50.57
2022-10-19T10:29:35.794Z,47.96
2022-10-19T10:32:07.968Z,47.63
2022-10-19T10:34:50.593Z,48.15
2022-10-19T10:37:22.897Z,49.25
2022-10-19T10:39:55.143Z,49.61
2022-10-19T10:42:30.051Z,51.31
2022-10-19T10:44:57.472Z,54.40
2022-10-19T10:47:27.007Z,56.72
2022-10-19T10:50:06.383Z,57.02
2022-10-19T10:52:34.548Z,58.37
2022-10-19T10:55:21.341Z,59.89
2022-10-19T10:57:51.755Z,60.71
2022-10-19T11:00:23.976Z,61.00
2022-10-19T11:03:09.162Z,60.52
2022-10-19T11:05:46.135Z,60.99
2022-10-19T11:08:12.421Z,60.94
2022-10-19T11:11:04.556Z,61.41
2022-10-19T11:13:39.467Z,61.78
2022-10-19T11:16:33.594Z,59.94
2022-10-19T11:19:10.831Z,59.62
2022-10-19T11:21:50.146Z,59.17
2022-10-19T11:24:21.242Z,58.85
2022-10-19T11:27:17.818Z,59.62
2022-10-19T11:30:16.434Z,59.58
2022-10-19T11:33:00.145Z,60.43
2022-10-19T11:35:42.027Z,59.62
2022-10-19T11:38:33.289Z,59.30
2022-10-19T11:41:18.928Z,55.81
2022-10-19T11:44:07.352Z,54.60
2022-10-19T11:46:51.782Z,55.07
2022-10-19T11:49:39.898Z,55.81
2022-10-19T11:52:55.370Z,54.71
2022-10-19T11:55:45.866Z,55.40
2022-10-19T11:58:34.597Z,54.46
2022-10-19T12:01:21.978Z,53.79
2022-10-19T12:04:02.858Z,52.80
2022-10-19T12:06:47.970Z,51.52
2022-10-19T12:09:32.584Z,51.86
2022-10-19T12:12:25.832Z,52.22
2022-10-19T12:15:00.924Z,52.59
2022-10-19T12:17:31.379Z,51.97
2022-10-19T12:20:06.417Z,50.88
2022-10-19T12:22:37.302Z,48.65
2022-10-19T12:25:04.247Z,48.89
2022-10-19T12:27:36.214Z,48.63
2022-10-19T12:30:23.678Z,48.29
2022-10-19T12:33:05.983Z,46.33
2022-10-19T12:35:45.953Z,45.95
2022-10-19T12:38:33.446Z,44.93
2022-10-19T12:41:07.177Z,44.50
2022-10-19T12:43:43.562Z,44.36
2022-10-19T12:46:37.162Z,45.56
2022-10-19T12:49:31.206Z,45.15
2022-10-19T12:52:01.619Z,45.56
2022-10-19T12:54:40.747Z,45.10
2022-10-19T12:57:27.093Z,46.08
2022-10-19T13:00:00.463Z,45.56
2022-10-19T13:05:04.609Z,47.35
2022-10-19T13:07:35.490Z,47.66
2022-10-19T13:10:07.045Z,48.07
2022-10-19T13:12:44.219Z,48.62
2022-10-19T13:15:35.678Z,49.83
2022-10-19T13:18:03.912Z,49.61
2022-10-19T13:20:30.206Z,49.85
2022-10-19T13:22:59.665Z,50.57
2022-10-19T13:25:32.686Z,50.41
2022-10-19T13:28:12.586Z,50.66
2022-10-19T13:30:38.962Z,50.29
2022-10-19T13:33:30.136Z,50.55
2022-10-19T13:35:59.423Z,50.93
2022-10-19T13:38:26.325Z,51.52
2022-10-19T13:40:52.725Z,50.94
2022-10-19T13:43:28.492Z,50.86
2022-10-19T13:46:07.909Z,51.67
2022-10-19T13:49:11.058Z,51.59
2022-10-19T13:52:04.949Z,51.86
2022-10-19T13:54:51.534Z,51.29
2022-10-19T13:57:20.895Z,51.66
2022-10-19T14:00:19.936Z,51.58
2022-10-19T14:03:10.818Z,52.10
2022-10-19T14:05:53.603Z,52.77
2022-10-19T14:08:43.230Z,53.23
2022-10-19T14:11:17.158Z,52.64
2022-10-19T14:13:43.804Z,52.90
2022-10-19T14:16:21.888Z,53.00
2022-10-19T14:18:55.912Z,52.40
2022-10-19T14:21:36.870Z,52.87
2022-10-19T14:24:19.365Z,52.53
2022-10-19T14:26:46.595Z,52.59
2022-10-19T14:29:13.627Z,51.99
2022-10-19T14:31:40.111Z,52.04
2022-10-19T14:34:09.325Z,51.80
2022-10-19T14:36:43.880Z,51.99
2022-10-19T14:39:29.313Z,51.22
2022-10-19T14:41:55.991Z,51.84
2022-10-19T14:44:39.518Z,51.47
2022-10-19T14:47:21.774Z,51.44
2022-10-19T14:49:48.471Z,51.34
2022-10-19T14:52:32.616Z,51.29
2022-10-19T14:55:01.804Z,51.37
2022-10-19T14:57:37.195Z,51.56
2022-10-19T15:00:13.994Z,51.47
2022-10-19T15:02:45.223Z,51.29
2022-10-19T15:05:20.872Z,51.28
2022-10-19T15:07:48.232Z,50.47
2022-10-19T15:10:21.607Z,51.99
2022-10-19T15:12:50.322Z,51.73
2022-10-19T15:15:22.564Z,51.88
2022-10-19T15:17:53.885Z,52.12
2022-10-19T15:20:49.154Z,51.69
2022-10-19T15:23:43.732Z,52.06
2022-10-19T15:26:18.527Z,51.06
2022-10-19T15:28:45.388Z,51.49
2022-10-19T15:31:25.526Z,51.83
2022-10-19T15:33:58.873Z,51.42
2022-10-19T15:36:26.514Z,51.14
2022-10-19T15:39:06.413Z,51.02
2022-10-19T15:41:44.818Z,52.06
2022-10-19T15:44:39.956Z,51.92
2022-10-19T15:47:19.393Z,52.25
2022-10-19T15:49:45.784Z,52.70
2022-10-19T15:52:16.290Z,52.30
2022-10-19T15:54:42.985Z,52.33
2022-10-19T15:57:26.215Z,52.36
2022-10-19T15:59:53.698Z,51.88
2022-10-19T16:02:20.061Z,53.25
2022-10-19T16:04:46.475Z,53.73
2022-10-19T16:07:24.070Z,53.91
2022-10-19T16:09:50.382Z,54.41
2022-10-19T16:12:16.707Z,54.10
2022-10-19T16:14:43.002Z,54.60
2022-10-19T16:17:13.003Z,54.59
2022-10-19T16:19:39.333Z,55.33
2022-10-19T16:22:05.977Z,55.50
2022-10-19T16:24:32.444Z,55.55
2022-10-19T16:26:58.785Z,56.20
2022-10-19T16:29:28.234Z,56.95
2022-10-19T16:31:55.589Z,57.23
2022-10-19T16:34:21.964Z,56.66
2022-10-19T16:36:48.439Z,57.35
2022-10-19T16:39:14.761Z,57.60
2022-10-19T16:41:41.085Z,57.58
2022-10-19T16:44:07.405Z,58.08
2022-10-19T16:46:33.771Z,58.12
2022-10-19T16:49:00.127Z,57.98
2022-10-19T16:51:28.921Z,58.01
2022-10-19T16:53:57.392Z,57.77
2022-10-19T16:56:26.300Z,58.00
2022-10-19T16:58:59.594Z,57.81
2022-10-19T17:01:26.651Z,58.45
2022-10-19T17:03:53.753Z,58.33
2022-10-19T17:06:20.282Z,58.32
2022-10-19T17:11:35.706Z,59.02
2022-10-19T17:14:05.937Z,59.00
2022-10-19T17:16:33.955Z,59.10
2022-10-19T17:19:01.739Z,58.73
2022-10-19T17:21:31.744Z,58.33
2022-10-19T17:24:00.745Z,58.75
2022-10-19T17:26:29.654Z,58.76
2022-10-19T17:28:57.095Z,58.45
2022-10-19T17:31:23.676Z,58.42
2022-10-19T17:33:50.229Z,59.27
2022-10-19T17:36:20.991Z,59.49
2022-10-19T17:38:47.778Z,59.61
2022-10-19T17:41:19.775Z,60.00
2022-10-19T17:43:47.151Z,60.23
2022-10-19T17:46:16.562Z,60.46
2022-10-19T17:48:44.244Z,60.54
2022-10-19T17:51:15.958Z,60.63
2022-10-19T17:53:46.473Z,60.13
2022-10-19T17:56:16.235Z,60.11
2022-10-19T17:58:42.584Z,59.64
2022-10-19T18:01:10.139Z,59.27
2022-10-19T18:03:38.421Z,59.69
2022-10-19T18:06:10.688Z,59.27
2022-10-19T18:08:39.845Z,59.53
2022-10-19T18:11:08.919Z,59.57
2022-10-19T18:16:14.522Z,59.50
2022-10-19T18:18:43.208Z,59.74
2022-10-19T18:21:12.679Z,59.77
2022-10-19T18:23:39.912Z,59.81
2022-10-19T18:26:13.323Z,59.14
2022-10-19T18:28:40.475Z,59.79
2022-10-19T18:31:13.153Z,59.75
2022-10-19T18:33:40.357Z,60.01
2022-10-19T18:36:10.043Z,60.37
2022-10-19T18:38:37.653Z,60.08
2022-10-19T18:41:11.627Z,60.38
2022-10-19T18:43:38.794Z,60.28
2022-10-19T18:46:05.514Z,60.57
2022-10-19T18:48:31.840Z,60.14
2022-10-19T18:51:02.577Z,60.71
2022-10-19T18:53:30.057Z,60.85
2022-10-19T18:56:04.510Z,61.08
2022-10-19T18:58:31.108Z,60.95
2022-10-19T19:01:16.214Z,61.02
2022-10-19T19:03:45.365Z,61.10
2022-10-19T19:06:19.577Z,61.36
2022-10-19T19:08:52.512Z,61.65
2022-10-19T19:11:21.518Z,61.96
2022-10-19T19:13:55.166Z,62.08
2022-10-19T19:16:22.464Z,61.94
2022-10-19T19:18:54.694Z,62.50
2022-10-19T19:21:23.783Z,62.37
2022-10-19T19:23:51.559Z,62.45
2022-10-19T19:26:18.926Z,62.51
2022-10-19T19:28:49.103Z,62.05
2022-10-19T19:31:18.563Z,63.12
2022-10-19T19:33:46.034Z,63.20
2022-10-19T19:36:13.975Z,63.27
2022-10-19T19:38:40.821Z,63.32
2022-10-19T19:41:09.260Z,63.77
2022-10-19T19:43:37.526Z,63.66
2022-10-19T19:46:09.281Z,63.88
2022-10-19T19:48:37.156Z,63.94
2022-10-19T19:51:03.983Z,64.38
2022-10-19T19:53:30.519Z,64.47
2022-10-19T19:55:56.913Z,64.88
2022-10-19T19:58:23.246Z,64.91
2022-10-19T20:00:49.558Z,64.79
2022-10-19T20:03:16.248Z,64.91
2022-10-19T20:05:42.757Z,65.04
2022-10-19T20:08:09.688Z,64.96
2022-10-19T20:10:41.430Z,65.22
2022-10-19T20:13:08.109Z,65.31
2022-10-19T20:15:38.546Z,65.28
2022-10-19T20:18:05.806Z,65.31
2022-10-19T20:20:32.126Z,65.48
2022-10-19T20:22:58.439Z,65.57
2022-10-19T20:25:24.738Z,65.48
2022-10-19T20:27:51.102Z,65.43
2022-10-19T20:30:17.617Z,65.52
2022-10-19T20:32:43.963Z,65.45
2022-10-19T20:35:10.387Z,65.47
2022-10-19T20:37:36.789Z,65.45
2022-10-19T20:40:08.531Z,65.53
2022-10-19T20:42:35.865Z,65.43
2022-10-19T20:45:02.641Z,65.54
2022-10-19T20:47:29.370Z,65.77
2022-10-19T20:49:55.701Z,66.22
2022-10-19T20:52:22.085Z,65.99
2022-10-19T20:54:49.192Z,66.13
2022-10-19T20:57:15.651Z,66.34
2022-10-19T20:59:43.702Z,66.42
2022-10-19T21:02:11.183Z,66.56
2022-10-19T21:04:37.570Z,66.81
2022-10-19T21:07:04.909Z,66.55
2022-10-19T21:09:31.641Z,66.65
2022-10-19T21:11:58.212Z,66.82
2022-10-19T21:14:28.603Z,66.88
2022-10-19T21:16:57.082Z,66.73
2022-10-19T21:19:26.844Z,66.57
2022-10-19T21:21:55.996Z,67.18
2022-10-19T21:24:25.306Z,66.86
2022-10-19T21:29:23.426Z,67.11
2022-10-19T21:31:52.122Z,66.86
2022-10-19T21:34:21.948Z,66.84
2022-10-19T21:36:48.691Z,67.00
2022-10-19T21:39:15.659Z,67.04
2022-10-19T21:41:42.247Z,67.11
2022-10-19T21:44:09.629Z,67.15
2022-10-19T21:46:36.034Z,67.02
2022-10-19T21:49:02.499Z,67.54
2022-10-19T21:51:34.570Z,67.68
2022-10-19T21:54:01.504Z,67.76
2022-10-19T21:56:28.677Z,67.99
2022-10-19T21:58:55.883Z,67.97
2022-10-19T22:01:25.790Z,68.22
2022-10-19T22:04:00.095Z,67.98
2022-10-19T22:06:29.157Z,68.30
2022-10-19T22:08:56.348Z,68.55
2022-10-19T22:11:23.090Z,68.49
2022-10-19T22:13:52.805Z,68.64
2022-10-19T22:16:20.586Z,68.23
2022-10-19T22:18:47.674Z,68.35
2022-10-19T22:21:18.349Z,68.26
2022-10-19T22:23:45.129Z,68.45
2022-10-19T22:26:23.645Z,68.55
2022-10-19T22:28:50.374Z,68.77
2022-10-19T22:31:16.957Z,69.15
2022-10-19T22:33:43.317Z,69.07
2022-10-19T22:36:11.759Z,69.42
2022-10-19T22:38:38.226Z,69.75
2022-10-19T22:41:04.574Z,69.74
2022-10-19T22:43:31.027Z,69.75
2022-10-19T22:45:57.358Z,69.79
2022-10-19T22:48:23.823Z,69.78
2022-10-19T22:50:52.975Z,70.02
2022-10-19T22:53:19.464Z,70.06
2022-10-19T22:55:45.829Z,69.72
2022-10-19T23:00:43.606Z,70.04
2022-10-19T23:03:09.967Z,69.87
2022-10-19T23:05:36.366Z,70.12
2022-10-19T23:08:02.828Z,70.46
2022-10-19T23:10:29.193Z,70.21
2022-10-19T23:12:55.559Z,70.40
2022-10-19T23:15:22.063Z,70.64
2022-10-19T23:17:48.413Z,70.55
2022-10-19T23:20:15.005Z,70.41
2022-10-19T23:22:41.446Z,70.74
2022-10-19T23:25:08.632Z,70.84
2022-10-19T23:27:35.308Z,71.14
2022-10-19T23:30:02.653Z,71.06
2022-10-19T23:32:28.999Z,71.27
2022-10-19T23:34:55.335Z,71.55
2022-10-19T23:37:21.714Z,71.38
2022-10-19T23:39:48.018Z,71.50
2022-10-19T23:42:14.413Z,71.77
2022-10-19T23:44:40.723Z,71.58
2022-10-19T23:47:07.025Z,71.71
2022-10-19T23:49:33.337Z,71.55
2022-10-19T23:51:59.954Z,71.99
2022-10-19T23:54:26.397Z,71.80
2022-10-19T23:56:52.697Z,72.04
2022-10-19T23:59:18.991Z,72.07
